createdAt,value
2018-04-14T00:02:06.708Z,19.97
2018-04-14T00:05:10.075Z,21.23
2018-04-14T00:08:13.364Z,19.70
2018-04-14T00:11:16.597Z,20.03
2018-04-14T00:14:19.968Z,21.30
2018-04-14T00:17:23.211Z,20.77
2018-04-14T00:20:26.500Z,20.30
2018-04-14T00:23:29.855Z,20.50
2018-04-14T00:26:33.160Z,20.10
2018-04-14T00:29:36.441Z,19.47
2018-04-14T00:32:39.748Z,20.80
2018-04-14T00:35:43.053Z,19.37
2018-04-14T00:38:46.334Z,20.63
2018-04-14T00:41:49.636Z,20.13
2018-04-14T00:44:53.023Z,18.93
2018-04-14T00:47:56.263Z,17.40
2018-04-14T00:50:59.523Z,20.00
2018-04-14T00:54:02.824Z,19.57
2018-04-14T00:57:06.148Z,19.83
2018-04-14T01:00:09.339Z,18.87
2018-04-14T01:03:12.461Z,18.40
2018-04-14T01:06:16.151Z,18.52
2018-04-14T01:09:19.352Z,18.63
2018-04-14T01:12:22.742Z,18.97
2018-04-14T01:15:26.379Z,20.77
2018-04-14T01:18:29.616Z,20.67
2018-04-14T01:21:33.839Z,19.73
2018-04-14T01:24:37.136Z,20.73
2018-04-14T01:27:40.444Z,20.20
2018-04-14T01:30:43.649Z,20.40
2018-04-14T01:33:47.018Z,19.65
2018-04-14T01:36:50.216Z,19.93
2018-04-14T01:39:53.547Z,19.83
2018-04-14T01:42:56.919Z,20.37
2018-04-14T01:46:00.225Z,19.10
2018-04-14T01:49:03.528Z,18.93
2018-04-14T01:52:06.881Z,19.33
2018-04-14T01:55:11.168Z,19.10
2018-04-14T01:58:14.455Z,18.67
2018-04-14T02:01:17.720Z,19.92
2018-04-14T02:04:20.958Z,18.40
2018-04-14T02:07:24.352Z,18.57
2018-04-14T02:10:27.629Z,19.47
2018-04-14T02:13:30.940Z,19.40
2018-04-14T02:16:34.347Z,18.17
2018-04-14T02:19:37.550Z,18.00
2018-04-14T02:22:46.311Z,17.53
2018-04-14T02:25:49.572Z,17.83
2018-04-14T02:28:52.827Z,16.97
2018-04-14T02:31:56.163Z,17.63
2018-04-14T02:34:59.354Z,17.80
2018-04-14T02:38:02.523Z,17.37
2018-04-14T02:41:05.850Z,17.63
2018-04-14T02:44:09.212Z,17.47
2018-04-14T02:47:12.427Z,16.67
2018-04-14T02:50:15.648Z,17.37
2018-04-14T02:53:19.047Z,17.57
2018-04-14T02:56:22.312Z,16.80
2018-04-14T02:59:25.733Z,16.20
2018-04-14T03:02:28.877Z,15.83
2018-04-14T03:05:32.196Z,16.30
2018-04-14T03:08:35.704Z,16.63
2018-04-14T03:11:39.097Z,16.00
2018-04-14T03:14:42.403Z,17.00
2018-04-14T03:17:45.632Z,15.43
2018-04-14T03:20:48.932Z,17.17
2018-04-14T03:23:52.296Z,16.87
2018-04-14T03:26:55.656Z,15.67
2018-04-14T03:29:58.980Z,15.07
2018-04-14T03:33:02.292Z,15.37
2018-04-14T03:36:05.604Z,15.63
2018-04-14T03:39:08.967Z,15.37
2018-04-14T03:42:12.280Z,14.93
2018-04-14T03:45:15.577Z,14.07
2018-04-14T03:48:18.808Z,13.77
2018-04-14T03:51:22.187Z,15.27
2018-04-14T03:54:25.642Z,15.00
2018-04-14T03:57:28.901Z,15.20
2018-04-14T04:00:32.195Z,14.67
2018-04-14T04:03:35.564Z,14.37
2018-04-14T04:06:38.855Z,13.77
2018-04-14T04:09:42.095Z,14.03
2018-04-14T04:12:45.465Z,13.90
2018-04-14T04:15:48.680Z,13.23
2018-04-14T04:20:04.157Z,13.97
2018-04-14T04:23:18.831Z,13.63
2018-04-14T04:26:22.103Z,12.50
2018-04-14T04:29:25.533Z,13.83
2018-04-14T04:32:28.900Z,14.03
2018-04-14T04:35:32.208Z,13.50
2018-04-14T04:38:35.535Z,14.33
2018-04-14T04:41:38.832Z,14.13
2018-04-14T04:44:42.091Z,13.97
2018-04-14T04:47:45.348Z,13.60
2018-04-14T04:50:48.608Z,14.30
2018-04-14T04:53:51.900Z,14.63
2018-04-14T04:56:55.271Z,14.13
2018-04-14T04:59:58.540Z,14.63
2018-04-14T05:03:01.883Z,15.10
2018-04-14T05:06:05.186Z,15.03
2018-04-14T05:09:08.500Z,14.15
2018-04-14T05:12:11.779Z,14.43
2018-04-14T05:15:15.094Z,13.73
2018-04-14T05:18:18.401Z,13.30
2018-04-14T05:21:21.852Z,13.50
2018-04-14T05:24:25.180Z,13.03
2018-04-14T05:27:28.516Z,13.43
2018-04-14T05:30:31.877Z,13.57
2018-04-14T05:33:35.108Z,13.63
2018-04-14T05:36:38.577Z,13.70
2018-04-14T05:39:41.771Z,12.40
2018-04-14T05:42:45.105Z,12.83
2018-04-14T05:45:48.335Z,12.93
2018-04-14T05:48:51.602Z,13.47
2018-04-14T05:51:54.913Z,12.77
2018-04-14T05:54:58.164Z,13.07
2018-04-14T05:58:01.545Z,12.13
2018-04-14T06:01:04.841Z,12.23
2018-04-14T06:04:08.168Z,12.90
2018-04-14T06:07:11.715Z,12.97
2018-04-14T06:10:15.091Z,12.73
2018-04-14T06:13:18.264Z,11.87
2018-04-14T06:16:22.760Z,11.90
2018-04-14T06:19:26.180Z,10.93
2018-04-14T06:22:29.464Z,12.03
2018-04-14T06:25:32.823Z,11.10
2018-04-14T06:28:36.128Z,10.50
2018-04-14T06:31:39.536Z,10.67
2018-04-14T06:34:42.960Z,9.88
2018-04-14T06:37:46.176Z,10.20
2018-04-14T06:40:49.371Z,10.03
2018-04-14T06:43:52.670Z,11.17
2018-04-14T06:46:56.729Z,10.80
2018-04-14T06:50:00.082Z,10.87
2018-04-14T06:53:03.228Z,10.87
2018-04-14T06:56:06.467Z,10.63
2018-04-14T06:59:09.781Z,10.07
2018-04-14T07:02:13.073Z,10.53
2018-04-14T07:05:16.469Z,10.23
2018-04-14T07:08:19.788Z,9.70
2018-04-14T07:11:23.038Z,9.60
2018-04-14T07:14:26.472Z,9.50
2018-04-14T07:17:29.936Z,9.03
2018-04-14T07:20:33.310Z,8.87
2018-04-14T07:23:36.444Z,8.63
2018-04-14T07:26:39.829Z,8.67
2018-04-14T07:29:43.113Z,9.77
2018-04-14T07:32:47.327Z,8.97
2018-04-14T07:35:50.628Z,8.93
2018-04-14T07:38:53.936Z,8.00
2018-04-14T07:41:57.273Z,8.30
2018-04-14T07:45:00.580Z,8.30
2018-04-14T07:48:03.845Z,7.67
2018-04-14T07:51:07.126Z,6.90
2018-04-14T07:54:10.236Z,7.43
2018-04-14T07:57:13.607Z,8.00
2018-04-14T08:00:16.961Z,7.10
2018-04-14T08:03:20.301Z,7.20
2018-04-14T08:06:23.656Z,6.00
2018-04-14T08:09:27.031Z,4.50
2018-04-14T08:12:30.256Z,3.93
2018-04-14T08:15:33.632Z,3.70
2018-04-14T08:18:36.827Z,3.90
2018-04-14T08:21:40.136Z,3.90
2018-04-14T08:24:43.312Z,3.83
2018-04-14T08:27:46.578Z,3.73
2018-04-14T08:30:49.907Z,3.77
2018-04-14T08:33:53.255Z,3.40
2018-04-14T08:36:57.164Z,3.33
2018-04-14T08:40:00.980Z,3.23
2018-04-14T08:43:04.217Z,3.15
2018-04-14T08:46:07.617Z,2.57
2018-04-14T08:49:10.886Z,2.70
2018-04-14T08:52:14.094Z,2.90
2018-04-14T08:55:17.389Z,2.80
2018-04-14T08:58:20.701Z,2.60
2018-04-14T09:01:23.979Z,2.87
2018-04-14T09:04:27.454Z,2.80
2018-04-14T09:07:30.851Z,2.70
2018-04-14T09:10:34.118Z,2.77
2018-04-14T09:13:37.322Z,2.30
2018-04-14T09:16:40.871Z,2.70
2018-04-14T09:19:44.169Z,2.37
2018-04-14T09:22:47.492Z,2.53
2018-04-14T09:25:50.757Z,2.10
2018-04-14T09:28:54.057Z,2.03
2018-04-14T09:31:57.497Z,2.03
2018-04-14T09:35:00.816Z,1.90
2018-04-14T09:38:04.263Z,2.17
2018-04-14T09:41:07.586Z,1.70
2018-04-14T09:44:11.064Z,1.70
2018-04-14T09:47:14.365Z,1.37
2018-04-14T09:50:17.657Z,2.10
2018-04-14T09:53:21.125Z,1.50
2018-04-14T09:56:25.166Z,1.60
2018-04-14T09:59:30.355Z,1.60
2018-04-14T10:02:37.933Z,1.47
2018-04-14T10:05:42.657Z,1.40
2018-04-14T10:08:45.959Z,1.30
2018-04-14T10:11:49.356Z,1.30
2018-04-14T10:14:52.915Z,1.50
2018-04-14T10:17:56.288Z,1.60
2018-04-14T10:20:59.687Z,1.23
2018-04-14T10:24:03.091Z,1.30
2018-04-14T10:27:06.369Z,1.37
2018-04-14T10:30:09.671Z,1.43
2018-04-14T10:33:13.156Z,1.37
2018-04-14T10:36:16.458Z,1.50
2018-04-14T10:39:19.835Z,1.40
2018-04-14T10:42:23.081Z,1.20
2018-04-14T10:45:26.288Z,1.50
2018-04-14T10:48:29.551Z,1.27
2018-04-14T10:51:32.973Z,1.50
2018-04-14T10:54:36.358Z,1.47
2018-04-14T10:57:39.666Z,1.50
2018-04-14T11:00:43.148Z,1.60
2018-04-14T11:03:47.562Z,1.20
2018-04-14T11:06:50.828Z,1.20
2018-04-14T11:09:54.160Z,1.40
2018-04-14T11:12:57.412Z,1.10
2018-04-14T11:16:00.801Z,1.40
2018-04-14T11:19:04.186Z,1.10
2018-04-14T11:22:07.592Z,1.67
2018-04-14T11:25:10.864Z,1.20
2018-04-14T11:28:14.182Z,1.50
2018-04-14T11:31:17.613Z,1.30
2018-04-14T11:34:20.905Z,1.20
2018-04-14T11:37:24.243Z,1.00
2018-04-14T11:40:27.564Z,1.23
2018-04-14T11:43:31.220Z,1.07
2018-04-14T11:46:34.408Z,1.00
2018-04-14T11:49:38.047Z,1.10
2018-04-14T11:52:41.420Z,1.30
2018-04-14T11:55:44.762Z,1.07
2018-04-14T11:58:48.080Z,1.20
2018-04-14T12:01:51.467Z,1.00
2018-04-14T12:04:54.761Z,1.30
2018-04-14T12:07:58.181Z,1.03
2018-04-14T12:11:01.536Z,0.97
2018-04-14T12:14:06.662Z,0.90
2018-04-14T12:17:10.351Z,1.10
2018-04-14T12:20:13.667Z,1.10
2018-04-14T12:23:17.019Z,1.00
2018-04-14T12:26:20.224Z,1.20
2018-04-14T12:29:23.385Z,1.00
2018-04-14T12:32:26.689Z,1.00
2018-04-14T12:35:31.017Z,1.00
2018-04-14T12:38:34.344Z,1.37
2018-04-14T12:41:37.737Z,0.90
2018-04-14T12:44:41.025Z,0.80
2018-04-14T12:47:44.176Z,0.70
2018-04-14T12:50:47.668Z,0.80
2018-04-14T12:53:51.027Z,0.90
2018-04-14T12:56:54.305Z,0.70
2018-04-14T12:59:57.720Z,1.93
2018-04-14T13:03:00.940Z,1.20
2018-04-14T13:06:04.204Z,1.10
2018-04-14T13:09:07.573Z,1.00
2018-04-14T13:12:10.940Z,0.80
2018-04-14T13:15:14.206Z,0.80
2018-04-14T13:18:17.392Z,0.67
2018-04-14T13:21:20.691Z,0.80
2018-04-14T13:24:23.981Z,0.60
2018-04-14T13:27:27.396Z,0.90
2018-04-14T13:30:30.808Z,1.10
2018-04-14T13:33:34.032Z,0.90
2018-04-14T13:36:37.585Z,0.70
2018-04-14T13:39:41.024Z,0.80
2018-04-14T13:42:44.379Z,0.70
2018-04-14T13:45:47.786Z,0.80
2018-04-14T13:48:51.113Z,0.80
2018-04-14T13:51:54.400Z,0.70
2018-04-14T13:54:57.695Z,0.80
2018-04-14T13:58:01.068Z,0.53
2018-04-14T14:01:04.387Z,0.80
2018-04-14T14:04:07.584Z,0.67
2018-04-14T14:07:10.987Z,0.73
2018-04-14T14:10:14.146Z,0.90
2018-04-14T14:13:17.461Z,1.07
2018-04-14T14:16:20.769Z,0.70
2018-04-14T14:19:24.108Z,0.63
2018-04-14T14:22:27.471Z,0.90
2018-04-14T14:25:30.852Z,0.97
2018-04-14T14:28:34.259Z,0.90
2018-04-14T14:31:43.895Z,0.80
2018-04-14T14:34:47.388Z,0.53
2018-04-14T14:37:50.690Z,0.70
2018-04-14T14:40:54.308Z,0.70
2018-04-14T14:43:57.587Z,0.70
2018-04-14T14:47:01.159Z,1.00
2018-04-14T14:50:08.647Z,0.83
2018-04-14T14:53:12.024Z,0.90
2018-04-14T14:56:15.295Z,0.80
2018-04-14T14:59:18.613Z,0.60
2018-04-14T15:02:21.890Z,1.10
2018-04-14T15:05:25.279Z,0.72
2018-04-14T15:08:29.691Z,0.80
2018-04-14T15:11:33.072Z,0.80
2018-04-14T15:14:36.431Z,0.70
2018-04-14T15:17:39.765Z,1.13
2018-04-14T15:20:43.105Z,0.70
2018-04-14T15:23:46.413Z,0.80
2018-04-14T15:26:49.812Z,2.00
2018-04-14T15:29:53.080Z,1.40
2018-04-14T15:32:56.336Z,0.87
2018-04-14T15:35:59.800Z,0.80
2018-04-14T15:39:03.084Z,0.80
2018-04-14T15:42:06.522Z,1.40
2018-04-14T15:45:09.937Z,1.17
2018-04-14T15:48:13.230Z,0.60
2018-04-14T15:51:16.624Z,0.90
2018-04-14T15:54:19.945Z,0.70
2018-04-14T15:57:23.319Z,0.70
2018-04-14T16:00:26.637Z,0.80
2018-04-14T16:03:30.016Z,1.03
2018-04-14T16:06:33.552Z,0.80
2018-04-14T16:09:36.881Z,1.00
2018-04-14T16:12:40.293Z,0.70
2018-04-14T16:15:43.661Z,1.70
2018-04-14T16:18:46.976Z,1.20
2018-04-14T16:21:50.422Z,2.30
2018-04-14T16:24:54.220Z,3.10
2018-04-14T16:27:57.625Z,1.00
2018-04-14T16:31:00.821Z,0.93
2018-04-14T16:34:04.290Z,1.00
2018-04-14T16:37:07.848Z,0.60
2018-04-14T16:40:11.121Z,1.30
2018-04-14T16:43:14.527Z,1.30
2018-04-14T16:46:18.179Z,1.20
2018-04-14T16:49:21.562Z,1.42
2018-04-14T16:52:24.861Z,0.90
2018-04-14T16:55:28.554Z,1.40
2018-04-14T16:58:31.871Z,1.40
2018-04-14T17:01:35.176Z,1.00
2018-04-14T17:04:38.485Z,0.90
2018-04-14T17:07:41.676Z,1.20
2018-04-14T17:10:45.046Z,1.37
2018-04-14T17:13:48.286Z,1.20
2018-04-14T17:16:51.564Z,1.20
2018-04-14T17:19:54.944Z,1.40
2018-04-14T17:22:58.263Z,1.73
2018-04-14T17:26:01.601Z,1.63
2018-04-14T17:29:04.839Z,1.22
2018-04-14T17:32:08.163Z,1.57
2018-04-14T17:35:11.440Z,1.47
2018-04-14T17:38:13.754Z,1.50
2018-04-14T17:41:17.133Z,2.00
2018-04-14T17:44:20.477Z,2.20
2018-04-14T17:47:23.729Z,1.92
2018-04-14T17:50:27.129Z,1.77
2018-04-14T17:53:30.228Z,2.70
2018-04-14T17:56:33.510Z,15.67
2018-04-14T17:59:36.914Z,4.67
2018-04-14T18:02:40.208Z,3.33
2018-04-14T18:05:43.455Z,2.50
2018-04-14T18:08:46.796Z,2.50
2018-04-14T18:11:50.085Z,3.20
2018-04-14T18:14:53.328Z,3.60
2018-04-14T18:17:56.526Z,2.90
2018-04-14T18:20:59.883Z,3.13
2018-04-14T18:24:03.188Z,4.00
2018-04-14T18:27:06.489Z,6.87
2018-04-14T18:30:09.759Z,4.12
2018-04-14T18:33:13.084Z,6.28
2018-04-14T18:36:16.304Z,5.15
2018-04-14T18:39:19.688Z,4.45
2018-04-14T18:42:23.003Z,5.10
2018-04-14T18:45:26.506Z,4.08
2018-04-14T18:48:29.901Z,4.55
2018-04-14T18:51:33.275Z,4.15
2018-04-14T18:54:36.515Z,4.47
2018-04-14T18:57:39.895Z,5.05
2018-04-14T19:00:43.202Z,6.50
2018-04-14T19:03:47.475Z,10.10
2018-04-14T19:06:50.922Z,7.22
2018-04-14T19:09:54.245Z,5.63
2018-04-14T19:12:57.654Z,3.53
2018-04-14T19:16:00.913Z,2.92
2018-04-14T19:19:04.069Z,3.17
2018-04-14T19:22:07.356Z,4.97
2018-04-14T19:25:10.748Z,6.30
2018-04-14T19:28:14.074Z,7.40
2018-04-14T19:31:17.350Z,6.40
2018-04-14T19:34:20.685Z,6.53
2018-04-14T19:37:24.101Z,7.15
2018-04-14T19:40:27.475Z,6.87
2018-04-14T19:43:30.789Z,7.17
2018-04-14T19:46:34.264Z,7.85
2018-04-14T19:49:37.532Z,7.45
2018-04-14T19:52:40.880Z,7.20
2018-04-14T19:55:44.279Z,6.87
2018-04-14T19:58:47.448Z,5.80
2018-04-14T20:01:52.744Z,5.65
2018-04-14T20:04:56.080Z,4.97
2018-04-14T20:07:59.381Z,4.23
2018-04-14T20:11:02.620Z,3.83
2018-04-14T20:14:05.913Z,3.13
2018-04-14T20:17:09.329Z,2.67
2018-04-14T20:20:12.580Z,2.73
2018-04-14T20:23:15.872Z,3.03
2018-04-14T20:26:19.170Z,2.90
2018-04-14T20:29:22.470Z,2.80
2018-04-14T20:32:25.813Z,2.87
2018-04-14T20:35:29.298Z,2.70
2018-04-14T20:38:32.605Z,2.50
2018-04-14T20:41:35.916Z,2.57
2018-04-14T20:44:40.354Z,2.80
2018-04-14T20:47:43.732Z,2.83
2018-04-14T20:50:47.020Z,2.93
2018-04-14T20:53:50.473Z,3.10
2018-04-14T20:56:53.844Z,3.30
2018-04-14T20:59:57.170Z,3.22
2018-04-14T21:04:03.963Z,3.00
2018-04-14T21:07:07.357Z,3.25
2018-04-14T21:10:10.719Z,3.13
2018-04-14T21:13:14.027Z,2.47
2018-04-14T21:16:17.343Z,2.80
2018-04-14T21:19:20.873Z,2.63
2018-04-14T21:22:24.208Z,2.40
2018-04-14T21:25:27.536Z,2.10
2018-04-14T21:28:30.965Z,1.90
2018-04-14T21:31:34.269Z,1.60
2018-04-14T21:34:37.682Z,1.70
2018-04-14T21:37:40.843Z,1.70
2018-04-14T21:40:44.193Z,1.20
2018-04-14T21:43:47.569Z,1.43
2018-04-14T21:46:50.776Z,1.40
2018-04-14T21:49:56.064Z,1.32
2018-04-14T21:53:01.459Z,1.20
2018-04-14T21:56:04.810Z,1.57
2018-04-14T21:59:08.064Z,1.30
2018-04-14T22:02:11.484Z,1.30
2018-04-14T22:05:15.163Z,1.20
2018-04-14T22:08:19.680Z,1.12
2018-04-14T22:11:22.993Z,1.22
2018-04-14T22:14:33.160Z,1.20
2018-04-14T22:17:36.348Z,1.30
2018-04-14T22:20:39.614Z,1.33
2018-04-14T22:23:42.908Z,1.30
2018-04-14T22:26:46.278Z,1.35
2018-04-14T22:29:49.509Z,1.62
2018-04-14T22:32:52.927Z,1.70
2018-04-14T22:35:56.226Z,1.70
2018-04-14T22:38:59.420Z,1.62
2018-04-14T22:42:02.804Z,1.50
2018-04-14T22:45:06.150Z,1.60
2018-04-14T22:48:09.302Z,1.60
2018-04-14T22:51:12.705Z,1.70
2018-04-14T22:54:15.935Z,1.80
2018-04-14T22:57:19.191Z,1.70
2018-04-14T23:00:22.527Z,1.93
2018-04-14T23:03:25.928Z,1.60
2018-04-14T23:06:29.323Z,1.60
2018-04-14T23:09:32.694Z,1.53
2018-04-14T23:12:35.985Z,1.70
2018-04-14T23:15:39.195Z,2.00
2018-04-14T23:18:42.481Z,1.90
2018-04-14T23:21:45.934Z,2.00
2018-04-14T23:24:49.272Z,1.80
2018-04-14T23:27:52.587Z,2.20
2018-04-14T23:30:55.979Z,2.15
2018-04-14T23:33:59.298Z,1.93
2018-04-14T23:37:02.568Z,2.40
2018-04-14T23:40:05.915Z,2.37
2018-04-14T23:43:10.064Z,2.12
2018-04-14T23:46:13.302Z,2.30
2018-04-14T23:49:16.622Z,2.25
2018-04-14T23:52:19.983Z,2.30
2018-04-14T23:55:23.225Z,2.35
2018-04-14T23:58:26.572Z,2.30
